sensor_id;sensor_type;location;lat;lon;timestamp;P1;durP1;ratioP1;P2;durP2;ratioP2
26820;SDS011;37186;51.394;5.454;2022-09-20T00:01:45;6.55;;;6.35;;
26820;SDS011;37186;51.394;5.454;2022-09-20T00:04:47;6.80;;;6.60;;
26820;SDS011;37186;51.394;5.454;2022-09-20T00:07:48;6.43;;;6.23;;
26820;SDS011;37186;51.394;5.454;2022-09-20T00:10:49;6.60;;;6.40;;
26820;SDS011;37186;51.394;5.454;2022-09-20T00:13:51;6.70;;;6.50;;
26820;SDS011;37186;51.394;5.454;2022-09-20T00:16:53;6.82;;;6.63;;
26820;SDS011;37186;51.394;5.454;2022-09-20T00:19:54;6.70;;;6.50;;
26820;SDS011;37186;51.394;5.454;2022-09-20T00:22:54;6.60;;;6.40;;
26820;SDS011;37186;51.394;5.454;2022-09-20T00:25:55;6.70;;;6.50;;
26820;SDS011;37186;51.394;5.454;2022-09-20T00:28:57;6.60;;;6.40;;
26820;SDS011;37186;51.394;5.454;2022-09-20T00:31:58;6.68;;;6.47;;
26820;SDS011;37186;51.394;5.454;2022-09-20T00:34:59;6.13;;;5.93;;
26820;SDS011;37186;51.394;5.454;2022-09-20T00:38:09;6.55;;;6.35;;
26820;SDS011;37186;51.394;5.454;2022-09-20T00:41:12;6.35;;;6.15;;
26820;SDS011;37186;51.394;5.454;2022-09-20T00:47:52;6.30;;;6.10;;
26820;SDS011;37186;51.394;5.454;2022-09-20T00:51:07;6.30;;;6.10;;
26820;SDS011;37186;51.394;5.454;2022-09-20T00:54:10;6.50;;;6.30;;
26820;SDS011;37186;51.394;5.454;2022-09-20T00:57:15;6.83;;;6.63;;
26820;SDS011;37186;51.394;5.454;2022-09-20T01:00:16;6.63;;;6.43;;
26820;SDS011;37186;51.394;5.454;2022-09-20T01:03:17;7.03;;;6.82;;
26820;SDS011;37186;51.394;5.454;2022-09-20T01:06:21;7.10;;;6.90;;
26820;SDS011;37186;51.394;5.454;2022-09-20T01:09:22;7.07;;;6.88;;
26820;SDS011;37186;51.394;5.454;2022-09-20T01:12:24;7.18;;;6.97;;
26820;SDS011;37186;51.394;5.454;2022-09-20T01:15:28;7.20;;;7.00;;
26820;SDS011;37186;51.394;5.454;2022-09-20T01:18:31;7.43;;;7.22;;
26820;SDS011;37186;51.394;5.454;2022-09-20T01:21:33;7.27;;;7.07;;
26820;SDS011;37186;51.394;5.454;2022-09-20T01:24:42;7.20;;;7.00;;
26820;SDS011;37186;51.394;5.454;2022-09-20T01:27:50;6.95;;;6.75;;
26820;SDS011;37186;51.394;5.454;2022-09-20T01:34:10;6.88;;;6.68;;
26820;SDS011;37186;51.394;5.454;2022-09-20T01:37:27;6.63;;;6.43;;
26820;SDS011;37186;51.394;5.454;2022-09-20T01:40:58;7.18;;;6.97;;
26820;SDS011;37186;51.394;5.454;2022-09-20T01:44:51;7.22;;;7.03;;
26820;SDS011;37186;51.394;5.454;2022-09-20T01:47:42;7.28;;;7.07;;
26820;SDS011;37186;51.394;5.454;2022-09-20T01:58:01;7.57;;;7.38;;
26820;SDS011;37186;51.394;5.454;2022-09-20T02:01:42;7.25;;;7.05;;
26820;SDS011;37186;51.394;5.454;2022-09-20T02:08:30;7.55;;;7.35;;
26820;SDS011;37186;51.394;5.454;2022-09-20T02:11:55;7.80;;;7.60;;
26820;SDS011;37186;51.394;5.454;2022-09-20T02:15:12;7.97;;;7.78;;
26820;SDS011;37186;51.394;5.454;2022-09-20T02:19:05;7.83;;;7.63;;
26820;SDS011;37186;51.394;5.454;2022-09-20T02:28:52;7.68;;;7.47;;
26820;SDS011;37186;51.394;5.454;2022-09-20T02:38:43;7.93;;;7.73;;
26820;SDS011;37186;51.394;5.454;2022-09-20T02:45:14;7.83;;;7.63;;
26820;SDS011;37186;51.394;5.454;2022-09-20T02:55:57;7.77;;;7.57;;
26820;SDS011;37186;51.394;5.454;2022-09-20T03:02:52;7.80;;;7.60;;
26820;SDS011;37186;51.394;5.454;2022-09-20T03:29:19;7.82;;;7.63;;
26820;SDS011;37186;51.394;5.454;2022-09-20T03:42:25;7.90;;;7.70;;
26820;SDS011;37186;51.394;5.454;2022-09-20T03:45:33;7.45;;;7.25;;
26820;SDS011;37186;51.394;5.454;2022-09-20T03:48:55;7.55;;;7.35;;
26820;SDS011;37186;51.394;5.454;2022-09-20T03:52:02;7.72;;;7.53;;
26820;SDS011;37186;51.394;5.454;2022-09-20T03:58:33;7.68;;;7.47;;
26820;SDS011;37186;51.394;5.454;2022-09-20T04:12:09;7.72;;;7.53;;
26820;SDS011;37186;51.394;5.454;2022-09-20T04:18:56;7.80;;;7.60;;
26820;SDS011;37186;51.394;5.454;2022-09-20T04:22:15;7.97;;;7.77;;
26820;SDS011;37186;51.394;5.454;2022-09-20T04:25:22;7.70;;;7.50;;
26820;SDS011;37186;51.394;5.454;2022-09-20T04:32:41;7.30;;;7.10;;
26820;SDS011;37186;51.394;5.454;2022-09-20T04:53:20;7.22;;;7.03;;
26820;SDS011;37186;51.394;5.454;2022-09-20T05:00:07;7.28;;;7.07;;
26820;SDS011;37186;51.394;5.454;2022-09-20T05:03:31;7.38;;;7.18;;
26820;SDS011;37186;51.394;5.454;2022-09-20T05:24:10;7.22;;;7.03;;
26820;SDS011;37186;51.394;5.454;2022-09-20T05:30:57;7.33;;;7.13;;
26820;SDS011;37186;51.394;5.454;2022-09-20T05:41:22;7.13;;;6.93;;
26820;SDS011;37186;51.394;5.454;2022-09-20T05:44:49;7.60;;;7.40;;
26820;SDS011;37186;51.394;5.454;2022-09-20T05:51:38;7.22;;;7.03;;
26820;SDS011;37186;51.394;5.454;2022-09-20T06:02:17;7.30;;;7.10;;
26820;SDS011;37186;51.394;5.454;2022-09-20T06:15:44;7.10;;;6.90;;
26820;SDS011;37186;51.394;5.454;2022-09-20T06:18:59;7.40;;;7.20;;
26820;SDS011;37186;51.394;5.454;2022-09-20T06:22:09;7.18;;;6.97;;
26820;SDS011;37186;51.394;5.454;2022-09-20T06:25:33;7.40;;;7.20;;
26820;SDS011;37186;51.394;5.454;2022-09-20T06:28:43;7.23;;;7.03;;
26820;SDS011;37186;51.394;5.454;2022-09-20T06:31:48;7.32;;;7.13;;
26820;SDS011;37186;51.394;5.454;2022-09-20T06:34:48;7.70;;;7.50;;
26820;SDS011;37186;51.394;5.454;2022-09-20T06:38:36;7.40;;;7.20;;
26820;SDS011;37186;51.394;5.454;2022-09-20T06:42:01;7.30;;;7.10;;
26820;SDS011;37186;51.394;5.454;2022-09-20T06:45:02;7.75;;;7.55;;
26820;SDS011;37186;51.394;5.454;2022-09-20T06:48:02;7.43;;;7.23;;
26820;SDS011;37186;51.394;5.454;2022-09-20T06:51:03;7.70;;;7.50;;
26820;SDS011;37186;51.394;5.454;2022-09-20T06:54:05;7.73;;;7.53;;
26820;SDS011;37186;51.394;5.454;2022-09-20T06:57:13;7.83;;;7.63;;
26820;SDS011;37186;51.394;5.454;2022-09-20T07:00:34;7.47;;;7.27;;
26820;SDS011;37186;51.394;5.454;2022-09-20T07:03:35;7.60;;;7.40;;
26820;SDS011;37186;51.394;5.454;2022-09-20T07:06:36;8.32;;;8.13;;
26820;SDS011;37186;51.394;5.454;2022-09-20T07:09:37;7.65;;;7.45;;
26820;SDS011;37186;51.394;5.454;2022-09-20T07:12:38;8.00;;;7.80;;
26820;SDS011;37186;51.394;5.454;2022-09-20T07:15:38;8.05;;;7.85;;
26820;SDS011;37186;51.394;5.454;2022-09-20T07:18:39;8.52;;;8.32;;
26820;SDS011;37186;51.394;5.454;2022-09-20T07:21:42;8.37;;;8.17;;
26820;SDS011;37186;51.394;5.454;2022-09-20T07:24:43;8.40;;;8.20;;
26820;SDS011;37186;51.394;5.454;2022-09-20T07:27:44;8.30;;;8.10;;
26820;SDS011;37186;51.394;5.454;2022-09-20T07:30:46;8.10;;;7.90;;
26820;SDS011;37186;51.394;5.454;2022-09-20T07:33:47;8.13;;;7.93;;
26820;SDS011;37186;51.394;5.454;2022-09-20T07:36:48;8.00;;;7.80;;
26820;SDS011;37186;51.394;5.454;2022-09-20T07:39:52;8.32;;;8.13;;
26820;SDS011;37186;51.394;5.454;2022-09-20T07:42:54;7.82;;;7.63;;
26820;SDS011;37186;51.394;5.454;2022-09-20T07:45:56;7.40;;;7.20;;
26820;SDS011;37186;51.394;5.454;2022-09-20T07:48:58;7.60;;;7.40;;
26820;SDS011;37186;51.394;5.454;2022-09-20T07:51:58;8.05;;;7.85;;
26820;SDS011;37186;51.394;5.454;2022-09-20T07:54:59;8.02;;;7.82;;
26820;SDS011;37186;51.394;5.454;2022-09-20T07:57:59;7.97;;;7.78;;
26820;SDS011;37186;51.394;5.454;2022-09-20T08:01:01;8.15;;;7.95;;
26820;SDS011;37186;51.394;5.454;2022-09-20T08:04:07;8.07;;;7.88;;
26820;SDS011;37186;51.394;5.454;2022-09-20T08:07:08;7.97;;;7.78;;
26820;SDS011;37186;51.394;5.454;2022-09-20T08:10:09;8.30;;;8.10;;
26820;SDS011;37186;51.394;5.454;2022-09-20T08:13:10;8.25;;;8.05;;
26820;SDS011;37186;51.394;5.454;2022-09-20T08:16:14;8.07;;;7.88;;
26820;SDS011;37186;51.394;5.454;2022-09-20T08:19:16;7.72;;;7.53;;
26820;SDS011;37186;51.394;5.454;2022-09-20T08:22:17;8.07;;;7.88;;
26820;SDS011;37186;51.394;5.454;2022-09-20T08:25:19;7.68;;;7.47;;
26820;SDS011;37186;51.394;5.454;2022-09-20T08:28:19;7.28;;;7.07;;
26820;SDS011;37186;51.394;5.454;2022-09-20T08:31:21;7.38;;;7.18;;
26820;SDS011;37186;51.394;5.454;2022-09-20T08:34:23;7.53;;;7.32;;
26820;SDS011;37186;51.394;5.454;2022-09-20T08:37:23;7.18;;;6.97;;
26820;SDS011;37186;51.394;5.454;2022-09-20T08:40:24;7.85;;;7.65;;
26820;SDS011;37186;51.394;5.454;2022-09-20T08:43:26;8.10;;;7.90;;
26820;SDS011;37186;51.394;5.454;2022-09-20T08:46:32;8.00;;;7.80;;
26820;SDS011;37186;51.394;5.454;2022-09-20T08:49:36;7.97;;;7.78;;
26820;SDS011;37186;51.394;5.454;2022-09-20T08:52:39;7.15;;;6.95;;
26820;SDS011;37186;51.394;5.454;2022-09-20T08:55:43;7.38;;;7.18;;
26820;SDS011;37186;51.394;5.454;2022-09-20T08:58:43;7.10;;;6.90;;
26820;SDS011;37186;51.394;5.454;2022-09-20T09:01:46;7.18;;;6.97;;
26820;SDS011;37186;51.394;5.454;2022-09-20T09:04:48;6.60;;;6.40;;
26820;SDS011;37186;51.394;5.454;2022-09-20T09:07:50;6.40;;;6.20;;
26820;SDS011;37186;51.394;5.454;2022-09-20T09:10:52;6.65;;;6.45;;
26820;SDS011;37186;51.394;5.454;2022-09-20T09:14:00;6.55;;;6.35;;
26820;SDS011;37186;51.394;5.454;2022-09-20T09:17:03;6.80;;;6.60;;
26820;SDS011;37186;51.394;5.454;2022-09-20T09:20:17;6.53;;;6.32;;
26820;SDS011;37186;51.394;5.454;2022-09-20T09:23:25;6.38;;;6.18;;
26820;SDS011;37186;51.394;5.454;2022-09-20T09:26:27;6.35;;;6.15;;
26820;SDS011;37186;51.394;5.454;2022-09-20T09:29:34;6.28;;;6.07;;
26820;SDS011;37186;51.394;5.454;2022-09-20T09:32:34;6.22;;;6.03;;
26820;SDS011;37186;51.394;5.454;2022-09-20T09:35:36;6.40;;;6.20;;
26820;SDS011;37186;51.394;5.454;2022-09-20T09:38:37;6.18;;;5.97;;
26820;SDS011;37186;51.394;5.454;2022-09-20T09:41:39;6.70;;;6.50;;
26820;SDS011;37186;51.394;5.454;2022-09-20T09:44:40;6.50;;;6.30;;
26820;SDS011;37186;51.394;5.454;2022-09-20T09:47:40;6.25;;;6.05;;
26820;SDS011;37186;51.394;5.454;2022-09-20T09:50:41;5.97;;;5.78;;
26820;SDS011;37186;51.394;5.454;2022-09-20T09:53:41;6.95;;;6.75;;
26820;SDS011;37186;51.394;5.454;2022-09-20T10:00:21;6.95;;;6.75;;
26820;SDS011;37186;51.394;5.454;2022-09-20T10:03:26;6.97;;;6.78;;
26820;SDS011;37186;51.394;5.454;2022-09-20T10:06:40;7.35;;;7.15;;
26820;SDS011;37186;51.394;5.454;2022-09-20T10:10:07;8.52;;;8.30;;
26820;SDS011;37186;51.394;5.454;2022-09-20T10:13:25;9.05;;;8.75;;
26820;SDS011;37186;51.394;5.454;2022-09-20T10:16:58;9.13;;;8.82;;
26820;SDS011;37186;51.394;5.454;2022-09-20T10:23:57;8.10;;;7.90;;
26820;SDS011;37186;51.394;5.454;2022-09-20T10:44:49;9.05;;;8.77;;
26820;SDS011;37186;51.394;5.454;2022-09-20T10:48:11;8.98;;;8.73;;
26820;SDS011;37186;51.394;5.454;2022-09-20T10:51:29;8.77;;;8.52;;
26820;SDS011;37186;51.394;5.454;2022-09-20T10:54:51;8.48;;;8.25;;
26820;SDS011;37186;51.394;5.454;2022-09-20T11:08:17;8.93;;;8.68;;
26820;SDS011;37186;51.394;5.454;2022-09-20T11:11:25;8.90;;;8.65;;
26820;SDS011;37186;51.394;5.454;2022-09-20T11:14:33;9.10;;;8.82;;
26820;SDS011;37186;51.394;5.454;2022-09-20T11:17:38;9.35;;;9.05;;
26820;SDS011;37186;51.394;5.454;2022-09-20T11:20:45;8.73;;;8.48;;
26820;SDS011;37186;51.394;5.454;2022-09-20T11:23:55;9.18;;;8.88;;
26820;SDS011;37186;51.394;5.454;2022-09-20T11:27:31;8.85;;;8.57;;
26820;SDS011;37186;51.394;5.454;2022-09-20T11:30:44;8.90;;;8.65;;
26820;SDS011;37186;51.394;5.454;2022-09-20T11:34:06;9.05;;;8.77;;
26820;SDS011;37186;51.394;5.454;2022-09-20T11:37:13;9.35;;;9.05;;
26820;SDS011;37186;51.394;5.454;2022-09-20T11:43:23;8.90;;;8.65;;
26820;SDS011;37186;51.394;5.454;2022-09-20T11:46:28;9.27;;;8.98;;
26820;SDS011;37186;51.394;5.454;2022-09-20T11:49:47;9.13;;;8.82;;
26820;SDS011;37186;51.394;5.454;2022-09-20T11:56:32;9.48;;;9.18;;
26820;SDS011;37186;51.394;5.454;2022-09-20T11:59:34;9.40;;;9.10;;
26820;SDS011;37186;51.394;5.454;2022-09-20T12:02:45;10.02;;;9.73;;
26820;SDS011;37186;51.394;5.454;2022-09-20T12:05:47;10.20;;;9.90;;
26820;SDS011;37186;51.394;5.454;2022-09-20T12:08:56;10.10;;;9.80;;
26820;SDS011;37186;51.394;5.454;2022-09-20T12:12:12;9.77;;;9.48;;
26820;SDS011;37186;51.394;5.454;2022-09-20T12:18:30;9.90;;;9.60;;
26820;SDS011;37186;51.394;5.454;2022-09-20T12:25:57;10.82;;;10.52;;
26820;SDS011;37186;51.394;5.454;2022-09-20T12:31:38;11.18;;;10.88;;
26820;SDS011;37186;51.394;5.454;2022-09-20T12:34:47;10.05;;;9.75;;
26820;SDS011;37186;51.394;5.454;2022-09-20T12:37:47;10.77;;;10.48;;
26820;SDS011;37186;51.394;5.454;2022-09-20T12:40:58;10.75;;;10.45;;
26820;SDS011;37186;51.394;5.454;2022-09-20T12:44:30;10.60;;;10.30;;
26820;SDS011;37186;51.394;5.454;2022-09-20T12:47:35;10.40;;;10.10;;
26820;SDS011;37186;51.394;5.454;2022-09-20T12:50:37;10.40;;;10.10;;
26820;SDS011;37186;51.394;5.454;2022-09-20T12:53:57;9.55;;;9.25;;
26820;SDS011;37186;51.394;5.454;2022-09-20T12:57:23;9.55;;;9.25;;
26820;SDS011;37186;51.394;5.454;2022-09-20T13:00:35;10.07;;;9.77;;
26820;SDS011;37186;51.394;5.454;2022-09-20T13:03:48;9.27;;;8.98;;
26820;SDS011;37186;51.394;5.454;2022-09-20T13:06:49;8.98;;;8.68;;
26820;SDS011;37186;51.394;5.454;2022-09-20T13:10:29;8.48;;;8.27;;
26820;SDS011;37186;51.394;5.454;2022-09-20T13:13:38;8.48;;;8.27;;
26820;SDS011;37186;51.394;5.454;2022-09-20T13:16:49;9.05;;;8.75;;
26820;SDS011;37186;51.394;5.454;2022-09-20T13:19:53;9.32;;;9.02;;
26820;SDS011;37186;51.394;5.454;2022-09-20T13:22:55;9.10;;;8.80;;
26820;SDS011;37186;51.394;5.454;2022-09-20T13:25:57;8.60;;;8.40;;
26820;SDS011;37186;51.394;5.454;2022-09-20T13:28:58;8.68;;;8.48;;
26820;SDS011;37186;51.394;5.454;2022-09-20T13:35:26;8.55;;;8.35;;
26820;SDS011;37186;51.394;5.454;2022-09-20T13:38:30;7.57;;;7.38;;
26820;SDS011;37186;51.394;5.454;2022-09-20T13:41:31;7.65;;;7.45;;
26820;SDS011;37186;51.394;5.454;2022-09-20T13:44:34;7.15;;;6.95;;
26820;SDS011;37186;51.394;5.454;2022-09-20T13:47:39;7.40;;;7.20;;
26820;SDS011;37186;51.394;5.454;2022-09-20T13:50:42;6.70;;;6.50;;
26820;SDS011;37186;51.394;5.454;2022-09-20T13:53:42;7.60;;;7.40;;
26820;SDS011;37186;51.394;5.454;2022-09-20T13:56:43;7.15;;;6.95;;
26820;SDS011;37186;51.394;5.454;2022-09-20T13:59:44;7.40;;;7.20;;
26820;SDS011;37186;51.394;5.454;2022-09-20T14:02:46;6.93;;;6.72;;
26820;SDS011;37186;51.394;5.454;2022-09-20T14:05:49;7.10;;;6.90;;
26820;SDS011;37186;51.394;5.454;2022-09-20T14:08:51;6.90;;;6.70;;
26820;SDS011;37186;51.394;5.454;2022-09-20T14:11:53;7.28;;;7.07;;
26820;SDS011;37186;51.394;5.454;2022-09-20T14:14:54;7.13;;;6.93;;
26820;SDS011;37186;51.394;5.454;2022-09-20T14:17:55;7.35;;;7.15;;
26820;SDS011;37186;51.394;5.454;2022-09-20T14:20:56;7.00;;;6.80;;
26820;SDS011;37186;51.394;5.454;2022-09-20T14:24:00;7.25;;;7.05;;
26820;SDS011;37186;51.394;5.454;2022-09-20T14:27:24;6.97;;;6.78;;
26820;SDS011;37186;51.394;5.454;2022-09-20T14:30:27;7.32;;;7.13;;
26820;SDS011;37186;51.394;5.454;2022-09-20T14:33:29;7.88;;;7.68;;
26820;SDS011;37186;51.394;5.454;2022-09-20T14:36:30;7.28;;;7.07;;
26820;SDS011;37186;51.394;5.454;2022-09-20T14:39:30;6.82;;;6.63;;
26820;SDS011;37186;51.394;5.454;2022-09-20T14:42:42;7.32;;;7.13;;
26820;SDS011;37186;51.394;5.454;2022-09-20T14:45:55;6.45;;;6.25;;
26820;SDS011;37186;51.394;5.454;2022-09-20T14:55:26;12.70;;;12.30;;
26820;SDS011;37186;51.394;5.454;2022-09-20T14:58:27;18.33;;;17.73;;
26820;SDS011;37186;51.394;5.454;2022-09-20T15:01:28;11.93;;;11.57;;
26820;SDS011;37186;51.394;5.454;2022-09-20T15:04:28;11.05;;;10.75;;
26820;SDS011;37186;51.394;5.454;2022-09-20T15:07:31;10.23;;;9.93;;
26820;SDS011;37186;51.394;5.454;2022-09-20T15:10:35;7.25;;;7.05;;
26820;SDS011;37186;51.394;5.454;2022-09-20T15:13:36;8.15;;;7.93;;
26820;SDS011;37186;51.394;5.454;2022-09-20T15:16:36;7.75;;;7.55;;
26820;SDS011;37186;51.394;5.454;2022-09-20T15:19:37;8.27;;;8.07;;
26820;SDS011;37186;51.394;5.454;2022-09-20T15:22:37;10.63;;;10.32;;
26820;SDS011;37186;51.394;5.454;2022-09-20T15:25:40;14.95;;;14.48;;
26820;SDS011;37186;51.394;5.454;2022-09-20T15:28:40;10.93;;;10.63;;
26820;SDS011;37186;51.394;5.454;2022-09-20T15:31:41;8.80;;;8.55;;
26820;SDS011;37186;51.394;5.454;2022-09-20T15:34:42;8.43;;;8.23;;
26820;SDS011;37186;51.394;5.454;2022-09-20T15:37:42;7.93;;;7.72;;
26820;SDS011;37186;51.394;5.454;2022-09-20T15:40:44;8.00;;;7.80;;
26820;SDS011;37186;51.394;5.454;2022-09-20T15:43:46;10.82;;;10.52;;
26820;SDS011;37186;51.394;5.454;2022-09-20T15:46:49;9.25;;;8.95;;
26820;SDS011;37186;51.394;5.454;2022-09-20T15:49:50;9.02;;;8.73;;
26820;SDS011;37186;51.394;5.454;2022-09-20T15:52:51;7.78;;;7.57;;
26820;SDS011;37186;51.394;5.454;2022-09-20T15:55:52;7.45;;;7.25;;
26820;SDS011;37186;51.394;5.454;2022-09-20T15:58:53;7.80;;;7.60;;
26820;SDS011;37186;51.394;5.454;2022-09-20T16:01:58;7.45;;;7.25;;
26820;SDS011;37186;51.394;5.454;2022-09-20T16:04:59;7.38;;;7.18;;
26820;SDS011;37186;51.394;5.454;2022-09-20T16:08:01;7.20;;;7.00;;
26820;SDS011;37186;51.394;5.454;2022-09-20T16:11:01;7.18;;;6.97;;
26820;SDS011;37186;51.394;5.454;2022-09-20T16:14:03;7.70;;;7.50;;
26820;SDS011;37186;51.394;5.454;2022-09-20T16:17:04;10.75;;;10.45;;
26820;SDS011;37186;51.394;5.454;2022-09-20T16:20:05;12.93;;;12.52;;
26820;SDS011;37186;51.394;5.454;2022-09-20T16:23:06;13.38;;;12.98;;
26820;SDS011;37186;51.394;5.454;2022-09-20T16:26:07;12.68;;;12.27;;
26820;SDS011;37186;51.394;5.454;2022-09-20T16:29:12;11.90;;;11.52;;
26820;SDS011;37186;51.394;5.454;2022-09-20T16:32:13;11.07;;;10.77;;
26820;SDS011;37186;51.394;5.454;2022-09-20T16:35:14;9.50;;;9.20;;
26820;SDS011;37186;51.394;5.454;2022-09-20T16:38:15;10.63;;;10.32;;
26820;SDS011;37186;51.394;5.454;2022-09-20T16:41:17;11.95;;;11.55;;
26820;SDS011;37186;51.394;5.454;2022-09-20T16:44:18;13.20;;;12.80;;
26820;SDS011;37186;51.394;5.454;2022-09-20T16:47:19;12.85;;;12.45;;
26820;SDS011;37186;51.394;5.454;2022-09-20T16:50:21;12.02;;;11.63;;
26820;SDS011;37186;51.394;5.454;2022-09-20T16:53:21;11.27;;;10.98;;
26820;SDS011;37186;51.394;5.454;2022-09-20T16:56:23;10.48;;;10.18;;
26820;SDS011;37186;51.394;5.454;2022-09-20T16:59:25;10.45;;;10.15;;
26820;SDS011;37186;51.394;5.454;2022-09-20T17:02:26;11.48;;;11.18;;
26820;SDS011;37186;51.394;5.454;2022-09-20T17:05:26;9.60;;;9.30;;
26820;SDS011;37186;51.394;5.454;2022-09-20T17:08:26;9.52;;;9.23;;
26820;SDS011;37186;51.394;5.454;2022-09-20T17:11:28;8.85;;;8.60;;
26820;SDS011;37186;51.394;5.454;2022-09-20T17:14:30;8.38;;;8.15;;
26820;SDS011;37186;51.394;5.454;2022-09-20T17:17:31;7.40;;;7.20;;
26820;SDS011;37186;51.394;5.454;2022-09-20T17:20:33;7.13;;;6.93;;
26820;SDS011;37186;51.394;5.454;2022-09-20T17:23:33;7.15;;;6.95;;
26820;SDS011;37186;51.394;5.454;2022-09-20T17:26:35;7.43;;;7.22;;
26820;SDS011;37186;51.394;5.454;2022-09-20T17:29:39;7.00;;;6.80;;
26820;SDS011;37186;51.394;5.454;2022-09-20T17:32:39;7.38;;;7.18;;
26820;SDS011;37186;51.394;5.454;2022-09-20T17:35:50;7.03;;;6.82;;
26820;SDS011;37186;51.394;5.454;2022-09-20T17:38:52;7.53;;;7.32;;
26820;SDS011;37186;51.394;5.454;2022-09-20T17:41:53;6.78;;;6.57;;
26820;SDS011;37186;51.394;5.454;2022-09-20T17:44:54;6.80;;;6.60;;
26820;SDS011;37186;51.394;5.454;2022-09-20T17:47:54;7.10;;;6.90;;
26820;SDS011;37186;51.394;5.454;2022-09-20T17:50:56;7.05;;;6.85;;
26820;SDS011;37186;51.394;5.454;2022-09-20T17:53:57;6.85;;;6.65;;
26820;SDS011;37186;51.394;5.454;2022-09-20T17:56:58;7.13;;;6.93;;
26820;SDS011;37186;51.394;5.454;2022-09-20T17:59:59;7.45;;;7.25;;
26820;SDS011;37186;51.394;5.454;2022-09-20T18:02:59;7.03;;;6.82;;
26820;SDS011;37186;51.394;5.454;2022-09-20T18:06:08;7.05;;;6.85;;
26820;SDS011;37186;51.394;5.454;2022-09-20T18:09:21;6.95;;;6.75;;
26820;SDS011;37186;51.394;5.454;2022-09-20T18:12:23;7.13;;;6.93;;
26820;SDS011;37186;51.394;5.454;2022-09-20T18:15:24;7.40;;;7.20;;
26820;SDS011;37186;51.394;5.454;2022-09-20T18:18:24;7.30;;;7.10;;
26820;SDS011;37186;51.394;5.454;2022-09-20T18:21:26;7.20;;;7.00;;
26820;SDS011;37186;51.394;5.454;2022-09-20T18:24:28;6.97;;;6.78;;
26820;SDS011;37186;51.394;5.454;2022-09-20T18:27:28;6.80;;;6.60;;
26820;SDS011;37186;51.394;5.454;2022-09-20T18:30:29;7.40;;;7.20;;
26820;SDS011;37186;51.394;5.454;2022-09-20T18:33:30;7.03;;;6.82;;
26820;SDS011;37186;51.394;5.454;2022-09-20T18:36:34;7.20;;;7.00;;
26820;SDS011;37186;51.394;5.454;2022-09-20T18:39:38;7.30;;;7.10;;
26820;SDS011;37186;51.394;5.454;2022-09-20T18:42:39;7.22;;;7.03;;
26820;SDS011;37186;51.394;5.454;2022-09-20T18:45:39;7.57;;;7.38;;
26820;SDS011;37186;51.394;5.454;2022-09-20T18:48:54;7.57;;;7.38;;
26820;SDS011;37186;51.394;5.454;2022-09-20T18:51:56;7.57;;;7.38;;
26820;SDS011;37186;51.394;5.454;2022-09-20T18:54:57;7.85;;;7.65;;
26820;SDS011;37186;51.394;5.454;2022-09-20T18:57:58;7.63;;;7.43;;
26820;SDS011;37186;51.394;5.454;2022-09-20T19:01:03;7.68;;;7.47;;
26820;SDS011;37186;51.394;5.454;2022-09-20T19:13:52;8.65;;;8.45;;
26820;SDS011;37186;51.394;5.454;2022-09-20T19:16:59;8.45;;;8.25;;
26820;SDS011;37186;51.394;5.454;2022-09-20T19:20:02;9.02;;;8.73;;
26820;SDS011;37186;51.394;5.454;2022-09-20T19:23:35;8.63;;;8.43;;
26820;SDS011;37186;51.394;5.454;2022-09-20T19:26:53;9.20;;;8.90;;
26820;SDS011;37186;51.394;5.454;2022-09-20T19:29:53;8.52;;;8.32;;
26820;SDS011;37186;51.394;5.454;2022-09-20T19:32:54;9.37;;;9.07;;
26820;SDS011;37186;51.394;5.454;2022-09-20T19:35:55;9.00;;;8.70;;
26820;SDS011;37186;51.394;5.454;2022-09-20T19:46:00;9.27;;;8.97;;
26820;SDS011;37186;51.394;5.454;2022-09-20T19:49:23;9.57;;;9.27;;
26820;SDS011;37186;51.394;5.454;2022-09-20T19:52:34;7.70;;;7.50;;
26820;SDS011;37186;51.394;5.454;2022-09-20T19:55:34;7.85;;;7.65;;
26820;SDS011;37186;51.394;5.454;2022-09-20T19:58:36;7.70;;;7.50;;
26820;SDS011;37186;51.394;5.454;2022-09-20T20:01:36;7.63;;;7.43;;
26820;SDS011;37186;51.394;5.454;2022-09-20T20:04:37;7.53;;;7.33;;
26820;SDS011;37186;51.394;5.454;2022-09-20T20:17:19;6.80;;;6.60;;
26820;SDS011;37186;51.394;5.454;2022-09-20T20:20:48;6.67;;;6.47;;
26820;SDS011;37186;51.394;5.454;2022-09-20T20:24:04;6.90;;;6.70;;
26820;SDS011;37186;51.394;5.454;2022-09-20T20:27:08;6.83;;;6.63;;
26820;SDS011;37186;51.394;5.454;2022-09-20T20:30:09;7.20;;;7.00;;
26820;SDS011;37186;51.394;5.454;2022-09-20T20:33:16;6.63;;;6.43;;
26820;SDS011;37186;51.394;5.454;2022-09-20T20:36:18;6.83;;;6.63;;
26820;SDS011;37186;51.394;5.454;2022-09-20T20:39:18;7.03;;;6.83;;
26820;SDS011;37186;51.394;5.454;2022-09-20T20:42:19;7.10;;;6.90;;
26820;SDS011;37186;51.394;5.454;2022-09-20T20:45:20;7.27;;;7.07;;
26820;SDS011;37186;51.394;5.454;2022-09-20T20:48:21;7.20;;;7.00;;
26820;SDS011;37186;51.394;5.454;2022-09-20T20:51:22;7.10;;;6.90;;
26820;SDS011;37186;51.394;5.454;2022-09-20T20:54:23;7.27;;;7.07;;
26820;SDS011;37186;51.394;5.454;2022-09-20T20:57:24;7.03;;;6.83;;
26820;SDS011;37186;51.394;5.454;2022-09-20T21:00:25;7.00;;;6.80;;
26820;SDS011;37186;51.394;5.454;2022-09-20T21:03:26;7.33;;;7.13;;
26820;SDS011;37186;51.394;5.454;2022-09-20T21:06:28;7.40;;;7.20;;
26820;SDS011;37186;51.394;5.454;2022-09-20T21:09:30;7.47;;;7.27;;
26820;SDS011;37186;51.394;5.454;2022-09-20T21:12:31;7.57;;;7.37;;
26820;SDS011;37186;51.394;5.454;2022-09-20T21:15:31;7.07;;;6.87;;
26820;SDS011;37186;51.394;5.454;2022-09-20T21:18:33;7.20;;;7.00;;
26820;SDS011;37186;51.394;5.454;2022-09-20T21:21:36;7.50;;;7.30;;
26820;SDS011;37186;51.394;5.454;2022-09-20T21:24:37;7.67;;;7.47;;
26820;SDS011;37186;51.394;5.454;2022-09-20T21:27:38;7.60;;;7.40;;
26820;SDS011;37186;51.394;5.454;2022-09-20T21:30:38;7.35;;;7.15;;
26820;SDS011;37186;51.394;5.454;2022-09-20T21:33:39;7.50;;;7.30;;
26820;SDS011;37186;51.394;5.454;2022-09-20T21:36:41;7.20;;;7.00;;
26820;SDS011;37186;51.394;5.454;2022-09-20T21:39:43;7.53;;;7.33;;
26820;SDS011;37186;51.394;5.454;2022-09-20T21:42:44;7.73;;;7.53;;
26820;SDS011;37186;51.394;5.454;2022-09-20T21:45:44;7.50;;;7.30;;
26820;SDS011;37186;51.394;5.454;2022-09-20T21:48:46;7.68;;;7.47;;
26820;SDS011;37186;51.394;5.454;2022-09-20T21:51:47;7.37;;;7.17;;
26820;SDS011;37186;51.394;5.454;2022-09-20T21:54:50;7.68;;;7.47;;
26820;SDS011;37186;51.394;5.454;2022-09-20T21:57:51;7.50;;;7.30;;
26820;SDS011;37186;51.394;5.454;2022-09-20T22:01:02;7.40;;;7.20;;
26820;SDS011;37186;51.394;5.454;2022-09-20T22:04:10;7.37;;;7.17;;
26820;SDS011;37186;51.394;5.454;2022-09-20T22:07:11;7.70;;;7.50;;
26820;SDS011;37186;51.394;5.454;2022-09-20T22:10:12;7.40;;;7.20;;
26820;SDS011;37186;51.394;5.454;2022-09-20T22:13:12;7.50;;;7.30;;
26820;SDS011;37186;51.394;5.454;2022-09-20T22:16:14;7.37;;;7.17;;
26820;SDS011;37186;51.394;5.454;2022-09-20T22:19:16;7.17;;;6.97;;
26820;SDS011;37186;51.394;5.454;2022-09-20T22:22:17;7.40;;;7.20;;
26820;SDS011;37186;51.394;5.454;2022-09-20T22:25:18;7.20;;;7.00;;
26820;SDS011;37186;51.394;5.454;2022-09-20T22:28:19;7.47;;;7.27;;
26820;SDS011;37186;51.394;5.454;2022-09-20T22:31:23;7.30;;;7.10;;
26820;SDS011;37186;51.394;5.454;2022-09-20T22:34:25;7.10;;;6.90;;
26820;SDS011;37186;51.394;5.454;2022-09-20T22:37:26;7.20;;;7.00;;
26820;SDS011;37186;51.394;5.454;2022-09-20T22:40:26;7.23;;;7.03;;
26820;SDS011;37186;51.394;5.454;2022-09-20T22:43:27;7.33;;;7.13;;
26820;SDS011;37186;51.394;5.454;2022-09-20T22:46:28;7.17;;;6.97;;
26820;SDS011;37186;51.394;5.454;2022-09-20T22:49:30;7.23;;;7.03;;
26820;SDS011;37186;51.394;5.454;2022-09-20T22:52:30;7.47;;;7.27;;
26820;SDS011;37186;51.394;5.454;2022-09-20T22:55:31;7.10;;;6.90;;